SBKP/CPQ METAR and TAF weather

Enter ICAO airport designator
Station Type Date Time Source
SBKP METAR 2021/01/17 19:00 UTC NOAA

SBKP 171900Z 02013KT 9999 SCT040 SCT100 28/20 Q1010


Station Type Date Time Source
SBKP Decoded METAR 2021/01/17 19:00 UTC NOAA

Campinas Aeroporto , Brazil (SBKP) 23-00S 047-08W 661M
Jan 17, 2021 - 02:00 PM EST / 2021.01.17 1900 UTC
Wind: from the NNE (020 degrees) at 15 MPH (13 KT):0
Visibility: greater than 7 mile(s):0
Sky conditions: partly cloudy
Temperature: 82 F (28 C)
Dew Point: 68 F (20 C)
Relative Humidity: 61%
Pressure (altimeter): 29.83 in. Hg (1010 hPa)
ob: SBKP 171900Z 02013KT 9999 SCT040 SCT100 28/20 Q1010
cycle: 19

Station Type Date Time Source
SBKP TAF 2021/01/17 18:27 UTC NOAA

TAF TAF SBKP 171608Z 1718/1818 33008KT 9999 SCT035 FEW045TCUTN21/1808Z TX28/1817Z
TEMPO 1718/1722 31013G25KT 4000 TSRA BKN025 FEW045CB
TEMPO 1722/1801 05005KT 9000 RA SCT040
BECMG 1801/1803 03005KT CAVOK PROB30 1805/1809 FEW009
BECMG 1809/1811 33007KT 9999 FEW035
BECMG 1813/1815 SCT035 FEW045TCU
TEMPO 1815/1818 32012G25KT 7000 TSRA BKN030 FEW045CB
RMK PGO

Example: see airport list